Bonaire, Georgia
Current Conditions -  °F | °C
As of 7:58 PM on Friday 19 Dec 2014 (Local Time) from KWRB Reporting Station
Few Clouds Few Clouds  
Wind Chill: 10°   Ceiling: Unl
Heat Index: 10°   Visibility: 10mi
Dew Point:   Wind: 2mph
Humidity: 71%   Direction: 120°ESE
Pressure: 30.13"   Gusts: NA
Location:  32.54°N, 83.6°W
Report Text: KWRB 200058Z AUTO 12002KT 10SM FEW130 10/05 A3013 RMK AO2 SLP207 T01030052
Loading
Personal Weather Stations






























Interactive Weather Map New forecast layout! Learn more

10-Day Weather Forecast

Advertisements
Track Severe Weather on mobile